sensor_id;sensor_type;location;lat;lon;timestamp;pressure;altitude;pressure_sealevel;temperature;humidity
9261;BME280;4667;42.726;23.252;2023-03-25T00:02:03;94947.41;;;10.42;100.00
9261;BME280;4667;42.726;23.252;2023-03-25T00:04:31;94950.50;;;10.33;100.00
9261;BME280;4667;42.726;23.252;2023-03-25T00:06:59;94948.19;;;10.28;100.00
9261;BME280;4667;42.726;23.252;2023-03-25T00:09:27;94952.09;;;10.16;100.00
9261;BME280;4667;42.726;23.252;2023-03-25T00:11:53;94945.13;;;10.15;100.00
9261;BME280;4667;42.726;23.252;2023-03-25T00:14:20;94942.81;;;10.25;100.00
9261;BME280;4667;42.726;23.252;2023-03-25T00:16:49;94948.97;;;10.25;100.00
9261;BME280;4667;42.726;23.252;2023-03-25T00:19:17;94935.09;;;10.12;100.00
9261;BME280;4667;42.726;23.252;2023-03-25T00:21:47;94930.44;;;10.16;100.00
9261;BME280;4667;42.726;23.252;2023-03-25T00:24:15;94925.00;;;10.13;100.00
9261;BME280;4667;42.726;23.252;2023-03-25T00:26:42;94926.94;;;10.09;100.00
9261;BME280;4667;42.726;23.252;2023-03-25T00:29:10;94930.81;;;10.15;100.00
9261;BME280;4667;42.726;23.252;2023-03-25T00:31:37;94928.88;;;10.08;100.00
9261;BME280;4667;42.726;23.252;2023-03-25T00:34:04;94935.88;;;10.06;100.00
9261;BME280;4667;42.726;23.252;2023-03-25T00:36:31;94927.34;;;10.07;100.00
9261;BME280;4667;42.726;23.252;2023-03-25T00:38:59;94925.41;;;10.15;100.00
9261;BME280;4667;42.726;23.252;2023-03-25T00:41:26;94925.03;;;10.09;100.00
9261;BME280;4667;42.726;23.252;2023-03-25T00:43:54;94922.34;;;10.06;100.00
9261;BME280;4667;42.726;23.252;2023-03-25T00:46:21;94920.78;;;10.08;100.00
9261;BME280;4667;42.726;23.252;2023-03-25T00:48:49;94916.13;;;10.09;100.00
9261;BME280;4667;42.726;23.252;2023-03-25T00:51:17;94908.41;;;10.11;100.00
9261;BME280;4667;42.726;23.252;2023-03-25T00:53:46;94914.59;;;10.11;100.00
9261;BME280;4667;42.726;23.252;2023-03-25T00:56:15;94908.41;;;10.11;100.00
9261;BME280;4667;42.726;23.252;2023-03-25T00:58:41;94913.03;;;10.14;100.00
9261;BME280;4667;42.726;23.252;2023-03-25T01:01:09;94906.44;;;10.15;100.00
9261;BME280;4667;42.726;23.252;2023-03-25T01:03:37;94911.50;;;10.16;100.00
9261;BME280;4667;42.726;23.252;2023-03-25T01:06:08;94900.69;;;10.16;100.00
9261;BME280;4667;42.726;23.252;2023-03-25T01:08:36;94902.59;;;10.09;100.00
9261;BME280;4667;42.726;23.252;2023-03-25T01:11:03;94891.41;;;10.07;100.00
9261;BME280;4667;42.726;23.252;2023-03-25T01:13:32;94898.72;;;10.13;100.00
9261;BME280;4667;42.726;23.252;2023-03-25T01:15:58;94902.19;;;10.14;100.00
9261;BME280;4667;42.726;23.252;2023-03-25T01:18:25;94895.28;;;10.06;100.00
9261;BME280;4667;42.726;23.252;2023-03-25T01:20:52;94896.44;;;10.05;100.00
9261;BME280;4667;42.726;23.252;2023-03-25T01:23:18;94886.38;;;10.09;100.00
9261;BME280;4667;42.726;23.252;2023-03-25T01:25:45;94879.03;;;10.02;100.00
9261;BME280;4667;42.726;23.252;2023-03-25T01:28:12;94879.81;;;10.03;100.00
9261;BME280;4667;42.726;23.252;2023-03-25T01:30:40;94876.75;;;10.01;100.00
9261;BME280;4667;42.726;23.252;2023-03-25T01:33:07;94868.63;;;9.97;100.00
9261;BME280;4667;42.726;23.252;2023-03-25T01:35:33;94860.16;;;9.77;100.00
9261;BME280;4667;42.726;23.252;2023-03-25T01:38:00;94859.00;;;9.78;100.00
9261;BME280;4667;42.726;23.252;2023-03-25T01:40:27;94863.63;;;9.78;100.00
9261;BME280;4667;42.726;23.252;2023-03-25T01:42:54;94857.84;;;9.79;100.00
9261;BME280;4667;42.726;23.252;2023-03-25T01:45:24;94863.66;;;9.74;100.00
9261;BME280;4667;42.726;23.252;2023-03-25T01:47:57;94860.22;;;9.63;100.00
9261;BME280;4667;42.726;23.252;2023-03-25T01:50:27;94861.00;;;9.53;100.00
9261;BME280;4667;42.726;23.252;2023-03-25T01:52:57;94868.72;;;9.55;100.00
9261;BME280;4667;42.726;23.252;2023-03-25T01:55:27;94864.47;;;9.57;100.00
9261;BME280;4667;42.726;23.252;2023-03-25T01:57:56;94861.38;;;9.62;100.00
9261;BME280;4667;42.726;23.252;2023-03-25T02:00:24;94857.50;;;9.60;100.00
9261;BME280;4667;42.726;23.252;2023-03-25T02:02:56;94851.69;;;9.61;100.00
9261;BME280;4667;42.726;23.252;2023-03-25T02:05:30;94849.38;;;9.60;100.00
9261;BME280;4667;42.726;23.252;2023-03-25T02:08:01;94847.06;;;9.55;100.00
9261;BME280;4667;42.726;23.252;2023-03-25T02:10:30;94848.66;;;9.52;100.00
9261;BME280;4667;42.726;23.252;2023-03-25T02:12:58;94855.97;;;9.37;100.00
9261;BME280;4667;42.726;23.252;2023-03-25T02:15:25;94847.50;;;9.39;100.00
9261;BME280;4667;42.726;23.252;2023-03-25T02:18:10;94841.69;;;9.37;100.00
9261;BME280;4667;42.726;23.252;2023-03-25T02:21:29;94843.63;;;9.40;100.00
9261;BME280;4667;42.726;23.252;2023-03-25T02:24:29;94843.25;;;9.34;100.00
9261;BME280;4667;42.726;23.252;2023-03-25T02:27:21;94837.84;;;9.27;100.00
9261;BME280;4667;42.726;23.252;2023-03-25T02:30:08;94837.06;;;9.20;100.00
9261;BME280;4667;42.726;23.252;2023-03-25T02:35:50;94839.81;;;9.06;100.00
9261;BME280;4667;42.726;23.252;2023-03-25T02:38:38;94838.25;;;9.15;100.00
9261;BME280;4667;42.726;23.252;2023-03-25T02:41:15;94845.19;;;9.09;100.00
9261;BME280;4667;42.726;23.252;2023-03-25T02:43:50;94838.63;;;9.10;100.00
9261;BME280;4667;42.726;23.252;2023-03-25T02:46:19;94830.91;;;9.12;100.00
9261;BME280;4667;42.726;23.252;2023-03-25T02:48:52;94833.22;;;9.07;100.00
9261;BME280;4667;42.726;23.252;2023-03-25T02:51:25;94825.91;;;9.04;100.00
9261;BME280;4667;42.726;23.252;2023-03-25T02:53:57;94830.53;;;8.85;100.00
9261;BME280;4667;42.726;23.252;2023-03-25T02:56:26;94832.84;;;8.87;100.00
9261;BME280;4667;42.726;23.252;2023-03-25T02:58:58;94827.81;;;8.78;100.00
9261;BME280;4667;42.726;23.252;2023-03-25T03:01:25;94816.25;;;8.74;100.00
9261;BME280;4667;42.726;23.252;2023-03-25T03:03:52;94812.75;;;8.77;100.00
9261;BME280;4667;42.726;23.252;2023-03-25T03:06:20;94822.41;;;8.71;100.00
9261;BME280;4667;42.726;23.252;2023-03-25T03:09:10;94824.72;;;8.66;100.00
9261;BME280;4667;42.726;23.252;2023-03-25T03:11:47;94820.47;;;8.57;100.00
9261;BME280;4667;42.726;23.252;2023-03-25T03:14:29;94827.81;;;8.71;100.00
9261;BME280;4667;42.726;23.252;2023-03-25T03:17:06;94833.97;;;8.68;100.00
9261;BME280;4667;42.726;23.252;2023-03-25T03:19:40;94841.25;;;8.43;100.00
9261;BME280;4667;42.726;23.252;2023-03-25T03:22:20;94827.72;;;8.36;100.00
9261;BME280;4667;42.726;23.252;2023-03-25T03:24:54;94828.16;;;8.45;100.00
9261;BME280;4667;42.726;23.252;2023-03-25T03:27:29;94825.41;;;8.31;100.00
9261;BME280;4667;42.726;23.252;2023-03-25T03:30:04;94836.59;;;8.33;100.00
9261;BME280;4667;42.726;23.252;2023-03-25T03:32:38;94838.09;;;8.27;100.00
9261;BME280;4667;42.726;23.252;2023-03-25T03:35:12;94845.38;;;8.15;100.00
9261;BME280;4667;42.726;23.252;2023-03-25T03:37:43;94841.91;;;8.18;100.00
9261;BME280;4667;42.726;23.252;2023-03-25T03:40:17;94841.88;;;8.11;100.00
9261;BME280;4667;42.726;23.252;2023-03-25T03:42:49;94841.47;;;8.06;100.00
9261;BME280;4667;42.726;23.252;2023-03-25T03:45:21;94846.47;;;8.00;100.00
9261;BME280;4667;42.726;23.252;2023-03-25T03:47:52;94841.47;;;8.02;100.00
9261;BME280;4667;42.726;23.252;2023-03-25T03:50:23;94848.34;;;7.89;100.00
9261;BME280;4667;42.726;23.252;2023-03-25T03:52:57;94846.06;;;7.91;100.00
9261;BME280;4667;42.726;23.252;2023-03-25T03:55:31;94843.69;;;7.79;100.00
9261;BME280;4667;42.726;23.252;2023-03-25T03:58:05;94842.53;;;7.80;100.00
9261;BME280;4667;42.726;23.252;2023-03-25T04:00:38;94840.59;;;7.73;100.00
9261;BME280;4667;42.726;23.252;2023-03-25T04:03:12;94848.63;;;7.70;100.00
9261;BME280;4667;42.726;23.252;2023-03-25T04:05:42;94837.84;;;7.70;100.00
9261;BME280;4667;42.726;23.252;2023-03-25T04:08:14;94841.69;;;7.69;100.00
9261;BME280;4667;42.726;23.252;2023-03-25T04:10:51;94849.03;;;7.72;100.00
9261;BME280;4667;42.726;23.252;2023-03-25T04:13:19;94841.75;;;7.76;100.00
9261;BME280;4667;42.726;23.252;2023-03-25T04:15:47;94838.56;;;7.60;100.00
9261;BME280;4667;42.726;23.252;2023-03-25T04:18:14;94840.19;;;7.71;100.00
9261;BME280;4667;42.726;23.252;2023-03-25T04:20:42;94838.22;;;7.61;100.00
9261;BME280;4667;42.726;23.252;2023-03-25T04:23:11;94834.00;;;7.71;100.00
9261;BME280;4667;42.726;23.252;2023-03-25T04:25:40;94834.41;;;7.73;100.00
9261;BME280;4667;42.726;23.252;2023-03-25T04:28:09;94845.97;;;7.73;100.00
9261;BME280;4667;42.726;23.252;2023-03-25T04:30:39;94844.84;;;7.82;100.00
9261;BME280;4667;42.726;23.252;2023-03-25T04:33:06;94844.84;;;7.78;100.00
9261;BME280;4667;42.726;23.252;2023-03-25T04:35:32;94846.03;;;7.84;100.00
9261;BME280;4667;42.726;23.252;2023-03-25T04:37:59;94842.59;;;7.91;100.00
9261;BME280;4667;42.726;23.252;2023-03-25T04:40:26;94841.00;;;7.83;100.00
9261;BME280;4667;42.726;23.252;2023-03-25T04:42:52;94844.09;;;7.85;100.00
9261;BME280;4667;42.726;23.252;2023-03-25T04:45:22;94847.53;;;7.82;100.00
9261;BME280;4667;42.726;23.252;2023-03-25T04:47:52;94836.03;;;7.92;100.00
9261;BME280;4667;42.726;23.252;2023-03-25T04:50:21;94847.59;;;7.92;100.00
9261;BME280;4667;42.726;23.252;2023-03-25T04:52:49;94836.47;;;7.97;100.00
9261;BME280;4667;42.726;23.252;2023-03-25T04:55:17;94839.16;;;8.04;100.00
9261;BME280;4667;42.726;23.252;2023-03-25T04:57:44;94843.06;;;8.14;100.00
9261;BME280;4667;42.726;23.252;2023-03-25T05:00:13;94842.28;;;8.17;100.00
9261;BME280;4667;42.726;23.252;2023-03-25T05:02:46;94838.44;;;8.18;100.00
9261;BME280;4667;42.726;23.252;2023-03-25T05:05:13;94843.13;;;8.28;100.00
9261;BME280;4667;42.726;23.252;2023-03-25T05:07:43;94846.25;;;8.34;100.00
9261;BME280;4667;42.726;23.252;2023-03-25T05:25:39;94851.75;;;9.26;100.00
9261;BME280;4667;42.726;23.252;2023-03-25T05:28:06;94843.63;;;9.36;100.00
9261;BME280;4667;42.726;23.252;2023-03-25T05:30:34;94840.91;;;9.54;100.00
9261;BME280;4667;42.726;23.252;2023-03-25T05:33:03;94837.03;;;9.69;100.00
9261;BME280;4667;42.726;23.252;2023-03-25T05:35:30;94845.84;;;9.84;100.00
9261;BME280;4667;42.726;23.252;2023-03-25T05:37:57;94839.25;;;9.99;100.00
9261;BME280;4667;42.726;23.252;2023-03-25T05:40:24;94839.94;;;10.14;100.00
9261;BME280;4667;42.726;23.252;2023-03-25T05:42:53;94851.53;;;10.29;100.00
9261;BME280;4667;42.726;23.252;2023-03-25T05:45:20;94851.88;;;10.41;100.00
9261;BME280;4667;42.726;23.252;2023-03-25T05:47:47;94847.91;;;10.56;100.00
9261;BME280;4667;42.726;23.252;2023-03-25T05:53:39;94846.59;;;10.79;100.00
9261;BME280;4667;42.726;23.252;2023-03-25T05:56:06;94851.91;;;10.96;100.00
9261;BME280;4667;42.726;23.252;2023-03-25T05:58:40;94851.47;;;11.05;100.00
9261;BME280;4667;42.726;23.252;2023-03-25T06:01:08;94853.31;;;11.15;100.00
9261;BME280;4667;42.726;23.252;2023-03-25T06:03:38;94845.91;;;11.23;100.00
9261;BME280;4667;42.726;23.252;2023-03-25T06:06:06;94840.81;;;11.32;100.00
9261;BME280;4667;42.726;23.252;2023-03-25T06:08:38;94846.97;;;11.36;100.00
9261;BME280;4667;42.726;23.252;2023-03-25T06:11:06;94845.69;;;11.48;100.00
9261;BME280;4667;42.726;23.252;2023-03-25T06:13:33;94837.91;;;11.53;100.00
9261;BME280;4667;42.726;23.252;2023-03-25T06:16:06;94837.44;;;11.58;100.00
9261;BME280;4667;42.726;23.252;2023-03-25T06:18:34;94835.84;;;11.64;100.00
9261;BME280;4667;42.726;23.252;2023-03-25T06:21:02;94832.59;;;11.80;100.00
9261;BME280;4667;42.726;23.252;2023-03-25T06:23:30;94832.53;;;11.87;100.00
9261;BME280;4667;42.726;23.252;2023-03-25T06:26:00;94836.28;;;12.00;100.00
9261;BME280;4667;42.726;23.252;2023-03-25T06:28:28;94841.25;;;12.05;100.00
9261;BME280;4667;42.726;23.252;2023-03-25T06:30:55;94839.09;;;12.23;100.00
9261;BME280;4667;42.726;23.252;2023-03-25T06:33:24;94842.00;;;12.40;100.00
9261;BME280;4667;42.726;23.252;2023-03-25T06:35:50;94842.00;;;12.40;100.00
9261;BME280;4667;42.726;23.252;2023-03-25T06:38:20;94841.66;;;12.38;100.00
9261;BME280;4667;42.726;23.252;2023-03-25T06:40:46;94841.53;;;12.14;100.00
9261;BME280;4667;42.726;23.252;2023-03-25T06:43:14;94846.84;;;12.25;100.00
9261;BME280;4667;42.726;23.252;2023-03-25T06:45:41;94834.03;;;12.56;100.00
9261;BME280;4667;42.726;23.252;2023-03-25T06:48:08;94842.59;;;12.54;100.00
9261;BME280;4667;42.726;23.252;2023-03-25T06:50:36;94847.94;;;12.61;100.00
9261;BME280;4667;42.726;23.252;2023-03-25T06:53:03;94844.03;;;12.62;100.00
9261;BME280;4667;42.726;23.252;2023-03-25T06:55:29;94853.59;;;12.74;100.00
9261;BME280;4667;42.726;23.252;2023-03-25T06:57:56;94856.81;;;12.65;100.00
9261;BME280;4667;42.726;23.252;2023-03-25T07:00:23;94858.44;;;12.59;100.00
9261;BME280;4667;42.726;23.252;2023-03-25T07:08:04;94852.00;;;12.46;100.00
9261;BME280;4667;42.726;23.252;2023-03-25T07:10:32;94841.19;;;12.43;100.00
9261;BME280;4667;42.726;23.252;2023-03-25T07:12:59;94837.09;;;12.58;100.00
9261;BME280;4667;42.726;23.252;2023-03-25T07:15:26;94833.44;;;12.72;100.00
9261;BME280;4667;42.726;23.252;2023-03-25T07:17:53;94844.66;;;13.00;100.00
9261;BME280;4667;42.726;23.252;2023-03-25T07:20:19;94846.63;;;13.27;100.00
9261;BME280;4667;42.726;23.252;2023-03-25T07:22:46;94854.72;;;13.30;100.00
9261;BME280;4667;42.726;23.252;2023-03-25T07:25:15;94844.84;;;13.40;100.00
9261;BME280;4667;42.726;23.252;2023-03-25T07:27:41;94839.69;;;13.69;100.00
9261;BME280;4667;42.726;23.252;2023-03-25T07:30:09;94846.16;;;13.98;100.00
9261;BME280;4667;42.726;23.252;2023-03-25T07:32:36;94837.25;;;14.17;100.00
9261;BME280;4667;42.726;23.252;2023-03-25T07:35:03;94839.34;;;14.29;100.00
9261;BME280;4667;42.726;23.252;2023-03-25T07:37:31;94833.47;;;14.51;100.00
9261;BME280;4667;42.726;23.252;2023-03-25T07:39:57;94835.00;;;14.52;100.00
9261;BME280;4667;42.726;23.252;2023-03-25T07:42:26;94827.94;;;14.90;100.00
9261;BME280;4667;42.726;23.252;2023-03-25T07:44:55;94825.75;;;15.18;100.00
9261;BME280;4667;42.726;23.252;2023-03-25T07:47:22;94820.19;;;14.89;97.89
9261;BME280;4667;42.726;23.252;2023-03-25T07:49:49;94823.09;;;15.46;97.97
9261;BME280;4667;42.726;23.252;2023-03-25T07:52:16;94816.03;;;15.49;90.80
9261;BME280;4667;42.726;23.252;2023-03-25T07:54:43;94806.31;;;15.93;91.86
9261;BME280;4667;42.726;23.252;2023-03-25T07:57:09;94799.78;;;16.45;86.68
9261;BME280;4667;42.726;23.252;2023-03-25T07:59:38;94801.72;;;17.24;81.48
9261;BME280;4667;42.726;23.252;2023-03-25T08:02:05;94795.94;;;17.81;77.44
9261;BME280;4667;42.726;23.252;2023-03-25T08:04:42;94795.94;;;18.03;72.78
9261;BME280;4667;42.726;23.252;2023-03-25T08:07:09;94787.34;;;18.88;68.56
9261;BME280;4667;42.726;23.252;2023-03-25T08:09:35;94781.34;;;19.79;65.36
9261;BME280;4667;42.726;23.252;2023-03-25T08:12:02;94786.50;;;19.68;61.81
9261;BME280;4667;42.726;23.252;2023-03-25T08:14:30;94781.47;;;20.21;61.80
9261;BME280;4667;42.726;23.252;2023-03-25T08:17:01;94779.16;;;20.65;58.34
9261;BME280;4667;42.726;23.252;2023-03-25T08:19:27;94772.38;;;20.84;58.14
9261;BME280;4667;42.726;23.252;2023-03-25T08:21:54;94769.50;;;21.11;57.50
9261;BME280;4667;42.726;23.252;2023-03-25T08:24:21;94767.91;;;21.52;55.71
9261;BME280;4667;42.726;23.252;2023-03-25T08:26:49;94775.38;;;21.61;53.45
9261;BME280;4667;42.726;23.252;2023-03-25T08:29:16;94771.75;;;21.55;52.80
9261;BME280;4667;42.726;23.252;2023-03-25T08:31:45;94776.69;;;21.51;52.46
9261;BME280;4667;42.726;23.252;2023-03-25T08:34:19;94768.34;;;21.60;51.05
9261;BME280;4667;42.726;23.252;2023-03-25T08:36:46;94764.25;;;21.94;51.81
9261;BME280;4667;42.726;23.252;2023-03-25T08:39:13;94765.00;;;22.04;51.80
9261;BME280;4667;42.726;23.252;2023-03-25T08:41:41;94762.59;;;21.96;51.62
9261;BME280;4667;42.726;23.252;2023-03-25T08:44:09;94765.91;;;22.01;51.21
9261;BME280;4667;42.726;23.252;2023-03-25T08:46:36;94757.69;;;21.91;50.04
9261;BME280;4667;42.726;23.252;2023-03-25T08:49:03;94751.78;;;22.37;49.77
9261;BME280;4667;42.726;23.252;2023-03-25T08:51:32;94750.88;;;22.84;48.11
9261;BME280;4667;42.726;23.252;2023-03-25T08:53:58;94752.84;;;22.98;47.54
9261;BME280;4667;42.726;23.252;2023-03-25T08:56:26;94745.25;;;23.28;46.95
9261;BME280;4667;42.726;23.252;2023-03-25T08:58:53;94752.94;;;22.89;46.37
9261;BME280;4667;42.726;23.252;2023-03-25T09:01:22;94743.28;;;23.49;46.08
9261;BME280;4667;42.726;23.252;2023-03-25T09:03:53;94741.66;;;23.42;44.84
9261;BME280;4667;42.726;23.252;2023-03-25T09:06:33;94733.22;;;23.86;44.24
9261;BME280;4667;42.726;23.252;2023-03-25T09:09:03;94729.59;;;24.47;42.84
9261;BME280;4667;42.726;23.252;2023-03-25T09:11:40;94731.31;;;24.70;43.06
9261;BME280;4667;42.726;23.252;2023-03-25T09:14:10;94731.41;;;24.24;42.31
9261;BME280;4667;42.726;23.252;2023-03-25T09:16:37;94729.16;;;24.28;41.10
9261;BME280;4667;42.726;23.252;2023-03-25T09:19:05;94730.63;;;24.23;42.13
9261;BME280;4667;42.726;23.252;2023-03-25T09:24:31;94725.44;;;24.31;41.21
9261;BME280;4667;42.726;23.252;2023-03-25T09:26:58;94734.22;;;24.29;41.29
9261;BME280;4667;42.726;23.252;2023-03-25T09:29:26;94712.13;;;24.35;41.62
9261;BME280;4667;42.726;23.252;2023-03-25T09:31:54;94715.59;;;24.30;41.07
9261;BME280;4667;42.726;23.252;2023-03-25T09:34:22;94715.59;;;24.30;41.16
9261;BME280;4667;42.726;23.252;2023-03-25T09:36:51;94718.59;;;24.06;41.21
9261;BME280;4667;42.726;23.252;2023-03-25T09:39:20;94713.66;;;24.67;41.33
9261;BME280;4667;42.726;23.252;2023-03-25T09:42:25;94700.31;;;24.97;40.50
9261;BME280;4667;42.726;23.252;2023-03-25T09:44:58;94696.53;;;24.95;39.38
9261;BME280;4667;42.726;23.252;2023-03-25T09:47:30;94698.19;;;24.55;38.23
9261;BME280;4667;42.726;23.252;2023-03-25T09:50:00;94704.19;;;24.48;38.65
9261;BME280;4667;42.726;23.252;2023-03-25T09:52:35;94690.50;;;24.39;38.15
9261;BME280;4667;42.726;23.252;2023-03-25T09:55:06;94693.22;;;24.59;37.13
9261;BME280;4667;42.726;23.252;2023-03-25T09:57:41;94686.22;;;24.69;36.97
9261;BME280;4667;42.726;23.252;2023-03-25T10:00:17;94688.34;;;24.86;34.94
9261;BME280;4667;42.726;23.252;2023-03-25T10:02:48;94679.41;;;24.96;35.13
9261;BME280;4667;42.726;23.252;2023-03-25T10:05:24;94670.84;;;25.42;34.74
9261;BME280;4667;42.726;23.252;2023-03-25T10:08:10;94673.81;;;25.92;33.30
9261;BME280;4667;42.726;23.252;2023-03-25T10:10:44;94663.59;;;26.26;32.78
9261;BME280;4667;42.726;23.252;2023-03-25T10:13:21;94664.03;;;26.14;33.92
9261;BME280;4667;42.726;23.252;2023-03-25T10:15:56;94650.63;;;25.90;35.34
9261;BME280;4667;42.726;23.252;2023-03-25T10:18:47;94645.00;;;25.68;35.90
9261;BME280;4667;42.726;23.252;2023-03-25T10:21:19;94644.03;;;25.28;34.78
9261;BME280;4667;42.726;23.252;2023-03-25T10:23:56;94641.31;;;24.91;33.45
9261;BME280;4667;42.726;23.252;2023-03-25T10:26:29;94635.78;;;25.45;33.56
9261;BME280;4667;42.726;23.252;2023-03-25T10:29:03;94642.22;;;25.62;33.11
9261;BME280;4667;42.726;23.252;2023-03-25T10:31:36;94632.41;;;25.72;33.32
9261;BME280;4667;42.726;23.252;2023-03-25T10:34:07;94632.47;;;26.17;33.38
9261;BME280;4667;42.726;23.252;2023-03-25T10:36:37;94622.41;;;26.64;32.80
9261;BME280;4667;42.726;23.252;2023-03-25T10:39:13;94620.63;;;26.83;32.96
9261;BME280;4667;42.726;23.252;2023-03-25T10:41:41;94617.34;;;27.01;33.21
9261;BME280;4667;42.726;23.252;2023-03-25T10:44:10;94620.75;;;27.52;31.44
9261;BME280;4667;42.726;23.252;2023-03-25T10:46:41;94618.59;;;28.21;31.36
9261;BME280;4667;42.726;23.252;2023-03-25T10:49:14;94611.63;;;28.99;30.70
9261;BME280;4667;42.726;23.252;2023-03-25T10:51:43;94600.66;;;29.92;28.92
9261;BME280;4667;42.726;23.252;2023-03-25T10:54:13;94596.94;;;29.84;28.41
9261;BME280;4667;42.726;23.252;2023-03-25T10:56:43;94589.91;;;29.59;28.06
9261;BME280;4667;42.726;23.252;2023-03-25T10:59:16;94582.81;;;29.77;28.52
9261;BME280;4667;42.726;23.252;2023-03-25T11:01:46;94578.78;;;30.60;26.34
9261;BME280;4667;42.726;23.252;2023-03-25T11:04:16;94582.03;;;30.32;25.89
9261;BME280;4667;42.726;23.252;2023-03-25T11:06:45;94574.72;;;30.61;26.10
9261;BME280;4667;42.726;23.252;2023-03-25T11:09:22;94580.72;;;30.01;25.70
9261;BME280;4667;42.726;23.252;2023-03-25T11:11:51;94578.91;;;28.99;26.15
9261;BME280;4667;42.726;23.252;2023-03-25T11:14:22;94575.88;;;28.97;26.32
9261;BME280;4667;42.726;23.252;2023-03-25T11:16:52;94574.34;;;28.12;26.96
9261;BME280;4667;42.726;23.252;2023-03-25T11:19:25;94568.97;;;28.20;27.20
9261;BME280;4667;42.726;23.252;2023-03-25T11:21:54;94562.13;;;28.21;29.39
9261;BME280;4667;42.726;23.252;2023-03-25T11:24:28;94555.16;;;28.03;28.02
9261;BME280;4667;42.726;23.252;2023-03-25T11:26:56;94558.09;;;28.52;27.63
9261;BME280;4667;42.726;23.252;2023-03-25T11:29:24;94547.81;;;29.14;27.17
9261;BME280;4667;42.726;23.252;2023-03-25T11:31:57;94535.44;;;29.34;26.91
9261;BME280;4667;42.726;23.252;2023-03-25T11:34:24;94536.53;;;28.82;27.27
9261;BME280;4667;42.726;23.252;2023-03-25T11:36:54;94540.69;;;28.10;27.70
9261;BME280;4667;42.726;23.252;2023-03-25T11:39:31;94542.03;;;27.63;28.30
9261;BME280;4667;42.726;23.252;2023-03-25T11:42:12;94540.72;;;27.17;29.38
9261;BME280;4667;42.726;23.252;2023-03-25T11:44:40;94538.81;;;26.67;29.38
9261;BME280;4667;42.726;23.252;2023-03-25T11:47:08;94531.78;;;26.55;29.61
9261;BME280;4667;42.726;23.252;2023-03-25T11:49:38;94532.28;;;25.98;31.44
9261;BME280;4667;42.726;23.252;2023-03-25T11:52:07;94520.69;;;25.88;31.54
9261;BME280;4667;42.726;23.252;2023-03-25T11:54:36;94527.44;;;25.54;30.43
9261;BME280;4667;42.726;23.252;2023-03-25T11:57:04;94529.53;;;25.00;31.65
9261;BME280;4667;42.726;23.252;2023-03-25T11:59:36;94526.78;;;25.05;31.86
9261;BME280;4667;42.726;23.252;2023-03-25T12:02:17;94518.81;;;25.41;31.07
9261;BME280;4667;42.726;23.252;2023-03-25T12:04:55;94516.41;;;24.89;31.96
9261;BME280;4667;42.726;23.252;2023-03-25T12:07:22;94520.56;;;24.73;31.77
9261;BME280;4667;42.726;23.252;2023-03-25T12:09:55;94523.94;;;24.46;32.23
9261;BME280;4667;42.726;23.252;2023-03-25T12:12:29;94525.41;;;23.47;33.99
9261;BME280;4667;42.726;23.252;2023-03-25T12:15:07;94527.81;;;22.94;33.78
9261;BME280;4667;42.726;23.252;2023-03-25T12:17:50;94523.31;;;22.76;34.13
9261;BME280;4667;42.726;23.252;2023-03-25T12:20:24;94517.41;;;22.68;34.57
9261;BME280;4667;42.726;23.252;2023-03-25T12:23:01;94521.53;;;22.58;34.66
9261;BME280;4667;42.726;23.252;2023-03-25T12:25:39;94518.75;;;22.38;34.19
9261;BME280;4667;42.726;23.252;2023-03-25T12:28:34;94509.16;;;22.33;34.53
9261;BME280;4667;42.726;23.252;2023-03-25T12:31:11;94515.53;;;22.60;35.22
9261;BME280;4667;42.726;23.252;2023-03-25T12:33:48;94521.13;;;22.65;35.13
9261;BME280;4667;42.726;23.252;2023-03-25T12:36:23;94517.31;;;22.43;35.93
9261;BME280;4667;42.726;23.252;2023-03-25T12:39:08;94518.53;;;22.21;34.98
9261;BME280;4667;42.726;23.252;2023-03-25T12:41:45;94513.31;;;22.44;35.02
9261;BME280;4667;42.726;23.252;2023-03-25T12:44:33;94512.34;;;22.47;34.89
9261;BME280;4667;42.726;23.252;2023-03-25T12:47:13;94515.94;;;22.88;34.32
9261;BME280;4667;42.726;23.252;2023-03-25T12:50:01;94514.06;;;22.64;34.98
9261;BME280;4667;42.726;23.252;2023-03-25T12:52:39;94510.06;;;22.65;34.88
9261;BME280;4667;42.726;23.252;2023-03-25T12:55:25;94503.47;;;22.98;34.29
9261;BME280;4667;42.726;23.252;2023-03-25T12:58:07;94507.84;;;22.84;33.94
9261;BME280;4667;42.726;23.252;2023-03-25T13:00:45;94502.19;;;22.73;34.33
9261;BME280;4667;42.726;23.252;2023-03-25T13:03:39;94513.16;;;22.53;34.43
9261;BME280;4667;42.726;23.252;2023-03-25T13:06:17;94508.53;;;21.94;34.83
9261;BME280;4667;42.726;23.252;2023-03-25T13:08:50;94515.78;;;21.92;35.19
9261;BME280;4667;42.726;23.252;2023-03-25T13:11:22;94511.63;;;21.96;35.35
9261;BME280;4667;42.726;23.252;2023-03-25T13:13:55;94503.41;;;21.87;35.66
9261;BME280;4667;42.726;23.252;2023-03-25T13:16:24;94498.41;;;21.71;35.93
9261;BME280;4667;42.726;23.252;2023-03-25T13:18:54;94498.50;;;21.62;36.01
9261;BME280;4667;42.726;23.252;2023-03-25T13:21:28;94500.41;;;21.56;36.02
9261;BME280;4667;42.726;23.252;2023-03-25T13:23:57;94497.66;;;21.27;36.28
9261;BME280;4667;42.726;23.252;2023-03-25T13:26:28;94501.38;;;21.00;37.26
9261;BME280;4667;42.726;23.252;2023-03-25T13:29:01;94505.28;;;20.69;37.37
9261;BME280;4667;42.726;23.252;2023-03-25T13:31:32;94511.41;;;20.88;37.46
9261;BME280;4667;42.726;23.252;2023-03-25T13:34:14;94520.91;;;20.40;38.49
9261;BME280;4667;42.726;23.252;2023-03-25T13:36:47;94529.88;;;20.49;38.37
9261;BME280;4667;42.726;23.252;2023-03-25T13:39:21;94533.31;;;20.35;38.08
9261;BME280;4667;42.726;23.252;2023-03-25T13:41:55;94530.88;;;20.37;37.83
9261;BME280;4667;42.726;23.252;2023-03-25T13:44:32;94544.94;;;20.30;38.73
9261;BME280;4667;42.726;23.252;2023-03-25T13:47:04;94546.34;;;20.25;39.19
9261;BME280;4667;42.726;23.252;2023-03-25T13:49:39;94551.09;;;20.16;39.12
9261;BME280;4667;42.726;23.252;2023-03-25T13:52:07;94550.78;;;19.81;40.52
9261;BME280;4667;42.726;23.252;2023-03-25T13:54:39;94549.16;;;19.65;42.28
9261;BME280;4667;42.726;23.252;2023-03-25T13:57:29;94572.22;;;19.13;44.84
9261;BME280;4667;42.726;23.252;2023-03-25T14:00:40;94560.88;;;18.65;48.26